createdAt,value
2023-04-08T00:23:44.295Z,18.33
2023-04-08T00:26:11.060Z,17.63
2023-04-08T00:28:38.291Z,18.20
2023-04-08T00:31:05.345Z,15.35
2023-04-08T00:33:32.506Z,17.90
2023-04-08T01:08:14.805Z,19.10
2023-04-08T03:23:55.304Z,33.92
2023-04-08T03:26:22.053Z,33.40
2023-04-08T03:28:48.991Z,31.30
2023-04-08T03:31:16.033Z,33.08
2023-04-08T03:48:56.657Z,32.25
2023-04-08T03:51:23.561Z,33.35
2023-04-08T03:53:50.321Z,32.80
2023-04-08T03:56:16.998Z,33.53
2023-04-08T03:58:43.659Z,33.40
2023-04-08T04:01:10.576Z,33.30
2023-04-08T04:03:37.406Z,32.33
2023-04-08T04:21:28.513Z,30.10
2023-04-08T04:23:55.640Z,30.15
2023-04-08T04:26:22.325Z,30.30
2023-04-08T04:53:12.487Z,34.08
2023-04-08T04:55:39.370Z,31.98
2023-04-08T04:58:06.608Z,32.15
2023-04-08T05:00:33.427Z,30.13
2023-04-08T05:03:00.620Z,30.40
2023-04-08T05:05:27.330Z,26.35
2023-04-08T05:07:54.008Z,31.15
2023-04-08T10:29:18.147Z,26.75
2023-04-08T10:31:47.494Z,26.83
2023-04-08T10:34:26.263Z,19.67
2023-04-08T10:36:55.408Z,23.17
2023-04-08T11:49:51.559Z,18.40
2023-04-08T11:52:18.250Z,18.92
2023-04-08T11:54:44.947Z,20.63
2023-04-08T12:09:46.938Z,14.45
2023-04-08T12:12:13.606Z,13.73
2023-04-08T12:14:40.388Z,17.17
2023-04-08T12:17:07.213Z,14.10
2023-04-08T12:19:34.835Z,15.90
2023-04-08T12:22:03.405Z,18.25
2023-04-08T12:24:30.169Z,14.02
2023-04-08T12:26:56.777Z,16.95
2023-04-08T12:29:23.430Z,18.60
2023-04-08T12:31:50.189Z,16.92
2023-04-08T12:57:22.933Z,12.88
2023-04-08T12:59:49.589Z,12.80
2023-04-08T13:02:16.512Z,13.65
2023-04-08T13:04:43.216Z,13.73
2023-04-08T13:07:09.844Z,13.10
2023-04-08T13:09:36.688Z,10.95
2023-04-08T13:12:03.715Z,14.55
2023-04-08T13:14:30.458Z,12.80
2023-04-08T13:16:58.124Z,13.75
2023-04-08T13:19:24.784Z,12.63
2023-04-08T13:21:51.373Z,11.43
2023-04-08T13:24:18.205Z,10.38
2023-04-08T13:26:44.889Z,10.20
2023-04-08T13:44:26.164Z,9.57
2023-04-08T13:47:18.961Z,10.70
2023-04-08T13:49:45.652Z,8.88
2023-04-08T14:20:05.467Z,10.32
2023-04-08T14:37:47.108Z,8.93
2023-04-08T14:40:13.824Z,8.07
2023-04-08T14:42:40.640Z,8.07
2023-04-08T14:45:07.929Z,9.60
2023-04-08T14:47:34.633Z,9.10
2023-04-08T14:50:01.305Z,9.80
2023-04-08T14:52:27.970Z,9.27
2023-04-08T14:54:54.614Z,8.48
2023-04-08T14:57:21.266Z,8.25
2023-04-08T14:59:48.098Z,9.48
2023-04-08T15:02:14.928Z,9.63
2023-04-08T15:04:41.631Z,9.95
2023-04-08T15:07:08.518Z,9.52
2023-04-08T15:09:35.361Z,8.82
2023-04-08T15:12:02.632Z,10.65
2023-04-08T15:14:29.344Z,10.75
2023-04-08T15:48:19.400Z,8.48
2023-04-08T17:25:11.531Z,4.03
2023-04-08T17:27:38.194Z,4.15
2023-04-08T17:30:05.228Z,4.22
2023-04-08T17:32:34.221Z,3.92
2023-04-08T17:35:01.961Z,4.28
2023-04-08T17:37:28.632Z,4.25
2023-04-08T17:39:55.563Z,4.13
2023-04-08T18:16:35.615Z,6.45
2023-04-08T18:19:02.272Z,6.10
2023-04-08T18:21:28.928Z,6.20
2023-04-08T18:23:55.542Z,7.55
2023-04-08T18:26:22.189Z,7.00
2023-04-08T18:28:48.791Z,7.28
2023-04-08T22:48:35.532Z,26.95
2023-04-08T22:51:02.199Z,27.67
2023-04-08T22:53:28.822Z,26.60
2023-04-08T22:55:55.400Z,25.17
2023-04-08T22:58:21.986Z,24.02
2023-04-08T23:23:55.164Z,27.02
2023-04-08T23:26:22.102Z,27.48
2023-04-08T23:28:48.795Z,28.08
2023-04-08T23:31:15.787Z,26.05
2023-04-08T23:33:42.519Z,24.95
2023-04-08T23:36:10.673Z,29.10
2023-04-08T23:38:37.520Z,29.63
2023-04-08T23:41:04.973Z,33.22
2023-04-08T23:43:31.862Z,27.58
2023-04-08T23:45:58.709Z,27.92
